Time;durP1;ratioP1;P1;durP2;ratioP2;P2;SDS_P1;SDS_P2;PMS_P1;PMS_P2;Temp;Humidity;BMP_temperature;BMP_pressure;BME280_temperature;BME280_humidity;BME280_pressure;Samples;Min_cycle;Max_cycle;Signal;HPM_P1;HPM_P2
2023/01/22 00:01:36;;;;;;;0.10;0.10;;;3.30;99.90;;;;;;5029700;28;20042;-67
2023/01/22 00:04:02;;;;;;;0.10;0.10;;;3.20;99.90;;;;;;5029769;28;20041;-67
2023/01/22 00:06:27;;;;;;;0.50;0.50;;;3.20;99.90;;;;;;5028924;28;20096;-67
2023/01/22 00:08:53;;;;;;;0.15;0.15;;;3.10;99.90;;;;;;5029268;28;20045;-68
2023/01/22 00:11:19;;;;;;;0.22;0.22;;;3.10;99.90;;;;;;5028974;28;20057;-67
2023/01/22 00:13:45;;;;;;;0.20;0.20;;;3.10;99.90;;;;;;5021525;28;20048;-67
2023/01/22 00:16:16;;;;;;;1.35;1.25;;;3.20;99.90;;;;;;5028766;28;20045;-67
2023/01/22 00:18:42;;;;;;;0.10;0.10;;;3.10;99.90;;;;;;5026327;28;20470;-67
2023/01/22 00:21:08;;;;;;;0.22;0.22;;;3.20;99.90;;;;;;5030330;28;20045;-67
2023/01/22 00:23:34;;;;;;;0.57;0.55;;;3.10;99.90;;;;;;5030098;28;20141;-68
2023/01/22 00:26:02;;;;;;;0.20;0.20;;;3.10;99.90;;;;;;5028583;28;20037;-68
2023/01/22 00:28:28;;;;;;;3.38;1.88;;;3.10;99.90;;;;;;5029031;28;20059;-67
2023/01/22 00:31:01;;;;;;;0.13;0.13;;;3.10;99.90;;;;;;5029879;28;20092;-68
2023/01/22 00:33:27;;;;;;;0.43;0.43;;;3.10;99.90;;;;;;5026348;28;20084;-68
2023/01/22 00:35:53;;;;;;;0.30;0.30;;;3.10;99.90;;;;;;5006210;28;20038;-68
2023/01/22 00:38:18;;;;;;;0.10;0.10;;;3.10;99.90;;;;;;5027031;28;20492;-68
2023/01/22 00:40:44;;;;;;;0.75;0.75;;;3.10;99.90;;;;;;5029506;28;20080;-68
2023/01/22 00:43:09;;;;;;;0.20;0.20;;;3.10;99.90;;;;;;5027983;28;20044;-68
2023/01/22 00:45:35;;;;;;;0.10;0.10;;;3.10;99.90;;;;;;5026883;28;20447;-68
2023/01/22 00:48:00;;;;;;;0.20;0.20;;;3.10;99.90;;;;;;5029007;28;20040;-67
2023/01/22 00:50:26;;;;;;;0.60;0.60;;;3.10;99.90;;;;;;5025662;28;20066;-67
2023/01/22 00:52:52;;;;;;;0.10;0.10;;;3.10;99.90;;;;;;5009836;28;20045;-67
2023/01/22 00:55:18;;;;;;;0.20;0.20;;;3.10;99.90;;;;;;5029231;28;20049;-67
2023/01/22 00:57:43;;;;;;;3.95;1.85;;;3.00;99.90;;;;;;5029218;28;20095;-67
2023/01/22 01:00:16;;;;;;;0.10;0.10;;;3.10;99.90;;;;;;5025692;28;20124;-67
2023/01/22 01:05:27;;;;;;;7.47;1.05;;;3.00;99.90;;;;;;5028223;28;20148;-67
2023/01/22 01:07:53;;;;;;;0.20;0.20;;;3.00;99.90;;;;;;5025514;28;20065;-67
2023/01/22 01:10:18;;;;;;;0.50;0.50;;;3.00;99.90;;;;;;5024122;28;20051;-67
2023/01/22 01:12:44;;;;;;;0.10;0.10;;;3.00;99.90;;;;;;5027476;28;20084;-67
2023/01/22 01:15:10;;;;;;;0.10;0.10;;;3.00;99.90;;;;;;5028777;28;20041;-67
2023/01/22 01:17:36;;;;;;;0.10;0.10;;;3.00;99.90;;;;;;5011687;28;20060;-67
2023/01/22 01:20:01;;;;;;;0.10;0.10;;;3.00;99.90;;;;;;5026632;28;20045;-67
2023/01/22 01:22:27;;;;;;;0.10;0.10;;;3.00;99.90;;;;;;5028251;28;20041;-67
2023/01/22 01:24:52;;;;;;;0.40;0.40;;;2.90;99.90;;;;;;5027916;28;20045;-67
2023/01/22 01:27:18;;;;;;;0.47;0.47;;;3.00;99.90;;;;;;5008168;28;20451;-67
2023/01/22 01:29:43;;;;;;;0.50;0.50;;;2.90;99.90;;;;;;5009179;28;20045;-68
2023/01/22 01:32:09;;;;;;;0.38;0.38;;;2.90;99.90;;;;;;5026758;28;20468;-68
2023/01/22 01:34:35;;;;;;;0.10;0.10;;;2.90;99.90;;;;;;5020529;28;20116;-67
2023/01/22 01:37:00;;;;;;;0.10;0.10;;;2.90;99.90;;;;;;5026251;28;20049;-67
2023/01/22 01:39:26;;;;;;;0.20;0.20;;;2.80;99.90;;;;;;5025602;28;20049;-67
2023/01/22 01:41:51;;;;;;;0.20;0.20;;;2.80;99.90;;;;;;5026935;28;20385;-68
2023/01/22 01:44:22;;;;;;;0.10;0.10;;;2.80;99.90;;;;;;5027205;28;20041;-68
2023/01/22 01:46:54;;;;;;;2.00;1.90;;;2.80;99.90;;;;;;5022814;28;20037;-67
2023/01/22 01:49:26;;;;;;;0.70;0.70;;;2.80;99.90;;;;;;5026840;28;20049;-67
2023/01/22 01:51:54;;;;;;;0.10;0.10;;;2.80;99.90;;;;;;5028620;28;20100;-67
2023/01/22 01:54:20;;;;;;;0.10;0.10;;;2.80;99.90;;;;;;5009429;28;20049;-67
2023/01/22 01:56:54;;;;;;;0.15;0.15;;;2.70;99.90;;;;;;5024604;28;20111;-67
2023/01/22 01:59:20;;;;;;;0.10;0.10;;;2.70;99.90;;;;;;5027361;28;20049;-67
2023/01/22 02:01:51;;;;;;;0.10;0.10;;;2.70;99.90;;;;;;5027028;28;20524;-67
2023/01/22 02:04:18;;;;;;;0.10;0.10;;;2.70;99.90;;;;;;5026900;28;20488;-67
2023/01/22 02:06:44;;;;;;;0.10;0.10;;;2.70;99.90;;;;;;5027258;28;20496;-67
2023/01/22 02:09:09;;;;;;;0.95;0.95;;;2.70;99.90;;;;;;5025910;28;20109;-68
2023/01/22 02:11:35;;;;;;;0.60;0.60;;;2.70;99.90;;;;;;5024709;28;20404;-67
2023/01/22 02:14:04;;;;;;;0.10;0.10;;;2.60;99.90;;;;;;5026833;28;20076;-67
2023/01/22 02:16:30;;;;;;;0.17;0.17;;;2.70;99.90;;;;;;5009577;28;20503;-68
2023/01/22 02:18:56;;;;;;;0.40;0.40;;;2.70;99.90;;;;;;5025963;28;20037;-67
2023/01/22 02:21:42;;;;;;;0.10;0.10;;;2.60;99.90;;;;;;5028539;28;20088;-67
2023/01/22 02:24:13;;;;;;;0.20;0.20;;;2.60;99.90;;;;;;5016650;28;20034;-67
2023/01/22 02:26:40;;;;;;;0.10;0.10;;;2.70;99.90;;;;;;5005381;28;20076;-67
2023/01/22 02:29:08;;;;;;;0.10;0.10;;;2.70;99.90;;;;;;5027999;28;20359;-67
2023/01/22 02:31:35;;;;;;;0.10;0.10;;;2.60;99.90;;;;;;5023781;28;20041;-67
2023/01/22 02:34:01;;;;;;;0.10;0.10;;;2.70;99.90;;;;;;5020568;28;20050;-68
2023/01/22 02:36:28;;;;;;;0.10;0.10;;;2.60;99.90;;;;;;5027167;28;20056;-68
2023/01/22 02:38:53;;;;;;;0.10;0.10;;;2.60;99.90;;;;;;5027324;28;20049;-67
2023/01/22 02:41:19;;;;;;;0.10;0.10;;;2.60;99.90;;;;;;5026373;28;20034;-68
2023/01/22 02:43:45;;;;;;;0.30;0.30;;;2.60;99.90;;;;;;5007487;28;20041;-68
2023/01/22 02:46:10;;;;;;;0.10;0.10;;;2.60;99.90;;;;;;5027024;28;20080;-67
2023/01/22 02:48:36;;;;;;;0.10;0.10;;;2.60;99.90;;;;;;5027355;28;20481;-67
2023/01/22 02:51:02;;;;;;;0.10;0.10;;;2.60;99.90;;;;;;5025772;28;20050;-67
2023/01/22 02:53:27;;;;;;;0.20;0.20;;;2.60;99.90;;;;;;5009453;28;20147;-67
2023/01/22 02:55:53;;;;;;;0.13;0.13;;;2.60;99.90;;;;;;5005826;28;20044;-67
2023/01/22 02:58:18;;;;;;;0.30;0.30;;;2.60;99.90;;;;;;5009977;28;20057;-67
2023/01/22 03:00:44;;;;;;;0.10;0.10;;;2.60;99.90;;;;;;5026510;28;20029;-67
2023/01/22 03:03:14;;;;;;;0.10;0.10;;;2.60;99.90;;;;;;5026005;28;20042;-67
2023/01/22 03:05:47;;;;;;;0.30;0.30;;;2.60;99.90;;;;;;5026515;28;20068;-67
2023/01/22 03:08:13;;;;;;;;;;;2.70;99.90;;;;;;5004593;28;20100;-67
2023/01/22 03:10:39;;;;;;;0.30;0.30;;;2.70;99.90;;;;;;5028978;28;20560;-68
2023/01/22 03:21:18;;;;;;;0.20;0.20;;;2.70;99.90;;;;;;5030274;28;20049;-67
2023/01/22 03:23:50;;;;;;;0.10;0.10;;;2.70;99.90;;;;;;5030144;28;20130;-68
2023/01/22 03:26:17;;;;;;;8.85;2.65;;;2.80;99.90;;;;;;5024657;28;20096;-67
2023/01/22 03:28:44;;;;;;;0.10;0.10;;;2.80;99.90;;;;;;5005669;28;20081;-67
2023/01/22 03:31:10;;;;;;;0.10;0.10;;;2.80;99.90;;;;;;5029850;28;20041;-67
2023/01/22 03:33:36;;;;;;;0.90;0.90;;;2.90;99.90;;;;;;5028337;28;20649;-67
2023/01/22 03:36:04;;;;;;;0.10;0.10;;;3.00;99.90;;;;;;5028665;28;20049;-67
2023/01/22 03:38:30;;;;;;;0.20;0.20;;;3.00;99.90;;;;;;5018266;28;20042;-67
2023/01/22 03:41:06;;;;;;;0.10;0.10;;;3.00;99.90;;;;;;5028324;28;20052;-67
2023/01/22 03:43:33;;;;;;;1.55;1.40;;;3.00;99.90;;;;;;5017767;28;20042;-67
2023/01/22 03:46:04;;;;;;;0.10;0.10;;;3.00;99.90;;;;;;5012048;28;20132;-67
2023/01/22 03:48:30;;;;;;;2.65;0.85;;;3.10;99.90;;;;;;5030187;28;20368;-67
2023/01/22 03:50:56;;;;;;;0.10;0.10;;;3.10;99.90;;;;;;5028448;28;20350;-67
2023/01/22 03:53:22;;;;;;;1.20;1.10;;;3.10;99.90;;;;;;5009514;28;20172;-67
2023/01/22 03:55:59;;;;;;;0.68;0.68;;;3.10;99.90;;;;;;5010635;28;20420;-67
2023/01/22 03:58:25;;;;;;;0.10;0.10;;;3.10;99.90;;;;;;5012913;28;20037;-68
2023/01/22 04:00:50;;;;;;;0.10;0.10;;;3.10;99.90;;;;;;5027796;28;20079;-67
2023/01/22 04:03:16;;;;;;;0.10;0.10;;;3.10;99.90;;;;;;5025276;28;20057;-67
2023/01/22 04:05:41;;;;;;;0.10;0.10;;;3.10;99.90;;;;;;5029969;28;20045;-68
2023/01/22 04:08:07;;;;;;;0.10;0.10;;;3.20;99.90;;;;;;5026718;28;20441;-67
2023/01/22 04:10:32;;;;;;;0.10;0.10;;;3.10;99.90;;;;;;5026028;28;20045;-68
2023/01/22 04:12:58;;;;;;;0.13;0.13;;;3.20;99.90;;;;;;5023220;28;20038;-68
2023/01/22 04:15:24;;;;;;;0.25;0.25;;;3.20;99.90;;;;;;5025053;28;20033;-68
2023/01/22 04:17:49;;;;;;;6.65;1.00;;;3.20;99.90;;;;;;5026898;28;20542;-68
2023/01/22 04:20:15;;;;;;;0.10;0.10;;;3.20;99.90;;;;;;5029099;28;20037;-68
2023/01/22 04:22:41;;;;;;;0.10;0.10;;;3.10;99.90;;;;;;5027221;28;20047;-67
2023/01/22 04:25:07;;;;;;;0.10;0.10;;;3.10;99.90;;;;;;5028360;28;20459;-68
2023/01/22 04:27:36;;;;;;;0.10;0.10;;;3.00;99.90;;;;;;5028987;28;20061;-68
2023/01/22 04:30:04;;;;;;;0.10;0.10;;;3.00;99.90;;;;;;5011996;28;20049;-68
2023/01/22 04:32:29;;;;;;;0.10;0.10;;;3.00;99.90;;;;;;5026624;28;20029;-67
2023/01/22 04:34:55;;;;;;;0.10;0.10;;;3.00;99.90;;;;;;5029633;28;20121;-68
2023/01/22 04:37:20;;;;;;;0.10;0.10;;;3.00;99.90;;;;;;5008061;28;20041;-67
2023/01/22 04:39:46;;;;;;;0.10;0.10;;;2.90;99.90;;;;;;5027004;28;20045;-67
2023/01/22 04:42:11;;;;;;;0.10;0.10;;;3.00;99.90;;;;;;5024799;28;20037;-68
2023/01/22 04:44:37;;;;;;;0.10;0.10;;;2.90;99.90;;;;;;5026727;28;20073;-67
2023/01/22 04:47:03;;;;;;;0.10;0.10;;;2.90;99.90;;;;;;5005838;28;20124;-67
2023/01/22 04:49:28;;;;;;;0.10;0.10;;;2.90;99.90;;;;;;5024806;28;20199;-67
2023/01/22 04:51:55;;;;;;;0.10;0.10;;;2.90;99.90;;;;;;5006943;28;20044;-67
2023/01/22 04:54:20;;;;;;;0.30;0.30;;;2.90;99.90;;;;;;5028785;28;20049;-67
2023/01/22 04:56:46;;;;;;;0.10;0.10;;;2.90;99.90;;;;;;5028177;28;20073;-67
2023/01/22 04:59:11;;;;;;;0.10;0.10;;;2.90;99.90;;;;;;5023417;28;20091;-67
2023/01/22 05:01:37;;;;;;;4.18;0.75;;;2.90;99.90;;;;;;5024199;28;20056;-68
2023/01/22 05:04:03;;;;;;;0.10;0.10;;;2.90;99.90;;;;;;5024793;28;20396;-67
2023/01/22 05:06:29;;;;;;;0.10;0.10;;;3.00;99.90;;;;;;5025037;28;20052;-68
2023/01/22 05:08:55;;;;;;;0.32;0.32;;;3.00;99.90;;;;;;5027107;28;20120;-68
2023/01/22 05:11:20;;;;;;;0.10;0.10;;;3.00;99.90;;;;;;5026895;28;20176;-67
2023/01/22 05:13:46;;;;;;;0.10;0.10;;;2.90;99.90;;;;;;5025510;28;20042;-67
2023/01/22 05:16:12;;;;;;;0.20;0.20;;;3.00;99.90;;;;;;5028404;28;20512;-68
2023/01/22 05:18:37;;;;;;;0.10;0.10;;;3.00;99.90;;;;;;5026288;28;20052;-68
2023/01/22 05:21:03;;;;;;;0.40;0.40;;;3.00;99.90;;;;;;5025436;28;20037;-68
2023/01/22 05:23:28;;;;;;;0.10;0.10;;;3.00;99.90;;;;;;5022181;28;20045;-67
2023/01/22 05:25:54;;;;;;;0.10;0.10;;;3.00;99.90;;;;;;5027173;28;20038;-68
2023/01/22 05:28:20;;;;;;;1.45;1.17;;;3.00;99.90;;;;;;5026986;28;20051;-67
2023/01/22 05:30:47;;;;;;;0.10;0.10;;;3.00;99.90;;;;;;5006477;28;20802;-68
2023/01/22 05:33:13;;;;;;;0.10;0.10;;;3.00;99.90;;;;;;5026808;28;20098;-67
2023/01/22 05:35:39;;;;;;;0.10;0.10;;;3.00;99.90;;;;;;5021947;28;20045;-67
2023/01/22 05:38:04;;;;;;;0.28;0.28;;;3.00;99.90;;;;;;5025504;28;20400;-67
2023/01/22 05:40:30;;;;;;;0.13;0.13;;;3.00;99.90;;;;;;5026164;28;20053;-67
2023/01/22 05:42:55;;;;;;;0.10;0.10;;;3.00;99.90;;;;;;5019574;28;20116;-67
2023/01/22 05:45:21;;;;;;;0.25;0.25;;;3.00;99.90;;;;;;5010748;28;20469;-67
2023/01/22 05:47:52;;;;;;;0.10;0.10;;;3.00;99.90;;;;;;5026391;28;20082;-67
2023/01/22 05:50:17;;;;;;;0.10;0.10;;;3.00;99.90;;;;;;5019586;28;20054;-67
2023/01/22 05:52:43;;;;;;;0.20;0.20;;;3.00;99.90;;;;;;5024576;28;20124;-67
2023/01/22 05:55:09;;;;;;;0.10;0.10;;;3.00;99.90;;;;;;5025884;28;20025;-67
2023/01/22 05:57:35;;;;;;;0.10;0.10;;;3.00;99.90;;;;;;5017245;28;20044;-67
2023/01/22 06:00:02;;;;;;;0.10;0.10;;;3.00;99.90;;;;;;5025944;28;20484;-67
2023/01/22 06:02:28;;;;;;;0.17;0.17;;;3.00;99.90;;;;;;5008348;28;20037;-67
2023/01/22 06:04:53;;;;;;;0.52;0.52;;;3.00;99.90;;;;;;5019442;28;20029;-67
2023/01/22 06:07:19;;;;;;;0.10;0.10;;;3.00;99.90;;;;;;5028555;28;20052;-67
2023/01/22 06:09:44;;;;;;;0.10;0.10;;;3.00;99.90;;;;;;5018590;28;20076;-67
2023/01/22 06:12:10;;;;;;;0.43;0.43;;;3.00;99.90;;;;;;5024582;28;20712;-67
2023/01/22 06:14:35;;;;;;;0.20;0.20;;;3.00;99.90;;;;;;5019206;28;20056;-67
2023/01/22 06:17:01;;;;;;;0.10;0.10;;;3.00;99.90;;;;;;5025033;28;20045;-67
2023/01/22 06:19:27;;;;;;;0.10;0.10;;;3.00;99.90;;;;;;5027761;28;20041;-68
2023/01/22 06:21:53;;;;;;;15.75;1.10;;;3.00;99.90;;;;;;5008710;28;20048;-67
2023/01/22 06:24:18;;;;;;;0.22;0.22;;;3.00;99.90;;;;;;5023518;28;20037;-67
2023/01/22 06:26:44;;;;;;;0.10;0.10;;;3.00;99.90;;;;;;5017795;28;20037;-67
2023/01/22 06:29:09;;;;;;;0.20;0.20;;;3.00;99.90;;;;;;5025897;28;20516;-67
2023/01/22 06:31:35;;;;;;;0.10;0.10;;;3.00;99.90;;;;;;5008654;28;20408;-67
2023/01/22 06:34:02;;;;;;;0.10;0.10;;;3.00;99.90;;;;;;5027529;28;20045;-67
2023/01/22 06:36:27;;;;;;;0.80;0.80;;;2.90;99.90;;;;;;5021609;28;20979;-67
2023/01/22 06:38:53;;;;;;;0.25;0.25;;;3.00;99.90;;;;;;5023866;28;20091;-67
2023/01/22 06:41:19;;;;;;;0.10;0.10;;;3.00;99.90;;;;;;5027439;28;20080;-67
2023/01/22 06:43:44;;;;;;;0.20;0.20;;;3.00;99.90;;;;;;5027003;28;20476;-67
2023/01/22 06:46:10;;;;;;;0.10;0.10;;;3.00;99.90;;;;;;5028180;28;20045;-67
2023/01/22 06:48:35;;;;;;;0.10;0.10;;;3.00;99.90;;;;;;5030850;28;20401;-67
2023/01/22 06:51:01;;;;;;;0.25;0.25;;;3.00;99.90;;;;;;5023495;28;20136;-67
2023/01/22 06:53:27;;;;;;;0.10;0.10;;;3.00;99.90;;;;;;5027868;28;20045;-67
2023/01/22 06:55:53;;;;;;;0.10;0.10;;;3.00;99.90;;;;;;5030451;28;20076;-66
2023/01/22 06:58:18;;;;;;;0.10;0.10;;;3.00;99.90;;;;;;5009905;28;20049;-67
2023/01/22 07:00:44;;;;;;;0.17;0.17;;;3.10;99.90;;;;;;5009845;28;20037;-67
2023/01/22 07:03:10;;;;;;;0.20;0.20;;;3.00;99.90;;;;;;5027224;28;20046;-67
2023/01/22 07:05:36;;;;;;;0.15;0.15;;;3.00;99.90;;;;;;5027965;28;20052;-67
2023/01/22 07:08:02;;;;;;;0.10;0.10;;;2.90;99.90;;;;;;5012015;28;20042;-67
2023/01/22 07:10:27;;;;;;;0.10;0.10;;;2.90;99.90;;;;;;5028674;28;20037;-67
2023/01/22 07:12:54;;;;;;;0.10;0.10;;;2.90;99.90;;;;;;5027169;28;20040;-67
2023/01/22 07:15:20;;;;;;;0.55;0.55;;;2.90;99.90;;;;;;5028161;28;20137;-67
2023/01/22 07:17:53;;;;;;;0.90;0.63;;;2.90;99.90;;;;;;5024395;28;20054;-67
2023/01/22 07:20:20;;;;;;;0.10;0.10;;;2.90;99.90;;;;;;5012489;28;20477;-67
2023/01/22 07:22:46;;;;;;;0.10;0.10;;;2.90;99.90;;;;;;5011345;28;20132;-67
2023/01/22 07:25:11;;;;;;;0.10;0.10;;;2.90;99.90;;;;;;5030490;28;20124;-67
2023/01/22 07:27:37;;;;;;;0.10;0.10;;;3.00;99.90;;;;;;5025353;28;20044;-67
2023/01/22 07:30:04;;;;;;;0.10;0.10;;;3.00;99.90;;;;;;5011185;28;20073;-67
2023/01/22 07:32:30;;;;;;;0.10;0.10;;;3.00;99.90;;;;;;5011504;28;20060;-67
2023/01/22 07:34:55;;;;;;;0.10;0.10;;;3.00;99.90;;;;;;5028836;28;20421;-67
2023/01/22 07:37:21;;;;;;;1.20;0.68;;;3.00;99.90;;;;;;5027007;28;20076;-67
2023/01/22 07:39:46;;;;;;;1.15;1.08;;;3.00;99.90;;;;;;5007361;28;20052;-67
2023/01/22 07:42:12;;;;;;;0.20;0.20;;;3.00;99.90;;;;;;5029094;28;20141;-67
2023/01/22 07:44:41;;;;;;;0.10;0.10;;;3.10;99.90;;;;;;5020984;28;20451;-67
2023/01/22 07:47:07;;;;;;;0.10;0.10;;;3.10;99.90;;;;;;5024277;28;20046;-67
2023/01/22 07:49:33;;;;;;;0.17;0.17;;;3.00;99.90;;;;;;5021347;28;20057;-68
2023/01/22 07:51:59;;;;;;;0.17;0.17;;;3.00;99.90;;;;;;5025751;28;20493;-68
2023/01/22 07:54:25;;;;;;;0.10;0.10;;;3.00;99.90;;;;;;5027102;28;20048;-67
2023/01/22 07:56:50;;;;;;;0.10;0.10;;;3.00;99.90;;;;;;5027273;28;20049;-68
2023/01/22 07:59:16;;;;;;;0.10;0.10;;;3.00;99.90;;;;;;5027898;28;20053;-68
2023/01/22 08:01:41;;;;;;;0.20;0.20;;;3.10;99.90;;;;;;5020115;28;20033;-67
2023/01/22 08:04:07;;;;;;;0.10;0.10;;;3.10;99.90;;;;;;5011742;28;20049;-67
2023/01/22 08:06:32;;;;;;;0.20;0.20;;;3.10;99.90;;;;;;5021170;28;20504;-68
2023/01/22 08:08:58;;;;;;;1.63;1.20;;;3.10;99.90;;;;;;5027111;28;20041;-68
2023/01/22 08:11:25;;;;;;;0.10;0.10;;;3.00;99.90;;;;;;5008208;28;20042;-68
2023/01/22 08:13:51;;;;;;;1.38;1.00;;;3.00;99.90;;;;;;5028084;28;20053;-68
2023/01/22 08:16:16;;;;;;;0.10;0.10;;;3.10;99.90;;;;;;5005964;28;20046;-68
2023/01/22 08:18:42;;;;;;;0.10;0.10;;;3.10;99.90;;;;;;5025906;28;20041;-68
2023/01/22 08:21:07;;;;;;;0.10;0.10;;;3.10;99.90;;;;;;5027633;28;20124;-68
2023/01/22 08:23:33;;;;;;;1.95;0.75;;;3.10;99.90;;;;;;5027290;28;20073;-68
2023/01/22 08:25:59;;;;;;;0.10;0.10;;;3.10;99.90;;;;;;5012388;28;20064;-68
2023/01/22 08:28:26;;;;;;;0.10;0.10;;;3.10;99.90;;;;;;5027142;28;20554;-68
2023/01/22 08:30:59;;;;;;;0.20;0.20;;;3.10;99.90;;;;;;5021425;28;20050;-68
2023/01/22 08:33:25;;;;;;;0.10;0.10;;;3.20;99.90;;;;;;5029262;28;20037;-65
2023/01/22 08:35:51;;;;;;;0.47;0.47;;;3.10;99.90;;;;;;5033125;28;20115;-65
2023/01/22 08:38:17;;;;;;;0.32;0.32;;;3.20;99.90;;;;;;5022484;28;20045;-65
2023/01/22 08:40:43;;;;;;;5.50;1.02;;;3.20;99.90;;;;;;5019681;28;20523;-65
2023/01/22 08:43:08;;;;;;;0.22;0.22;;;3.20;99.90;;;;;;5023473;28;20053;-65
2023/01/22 08:45:34;;;;;;;0.57;0.57;;;3.20;99.90;;;;;;5024620;28;20037;-65
2023/01/22 08:47:59;;;;;;;0.10;0.10;;;3.20;99.90;;;;;;5024627;28;20037;-65
2023/01/22 08:50:26;;;;;;;0.13;0.13;;;3.20;99.90;;;;;;5025408;28;21212;-62
2023/01/22 08:52:54;;;;;;;0.10;0.10;;;3.20;99.90;;;;;;5025963;28;20085;-65
2023/01/22 08:55:19;;;;;;;0.45;0.45;;;3.20;99.90;;;;;;5028047;28;20481;-65
2023/01/22 08:57:54;;;;;;;0.77;0.77;;;3.20;99.90;;;;;;5014217;28;20129;-65
2023/01/22 09:00:21;;;;;;;0.40;0.40;;;3.20;99.90;;;;;;5020545;28;20052;-67
2023/01/22 09:02:47;;;;;;;0.10;0.10;;;3.20;99.90;;;;;;5022648;28;20041;-67
2023/01/22 09:05:12;;;;;;;0.38;0.38;;;3.20;99.90;;;;;;5022492;28;20041;-67
2023/01/22 09:07:38;;;;;;;0.38;0.38;;;3.20;99.90;;;;;;5024161;28;20037;-67
2023/01/22 09:10:06;;;;;;;0.28;0.28;;;3.30;99.90;;;;;;5026890;28;20435;-67
2023/01/22 09:12:33;;;;;;;0.10;0.10;;;3.30;99.90;;;;;;5026148;28;20049;-67
2023/01/22 09:14:59;;;;;;;0.20;0.20;;;3.30;99.90;;;;;;5027437;28;20136;-67
2023/01/22 09:17:24;;;;;;;0.10;0.10;;;3.30;99.90;;;;;;5005680;28;20131;-67
2023/01/22 09:19:50;;;;;;;0.10;0.10;;;3.30;99.90;;;;;;5022575;28;20037;-67
2023/01/22 09:22:15;;;;;;;0.20;0.20;;;3.30;99.90;;;;;;5027173;28;20116;-67
2023/01/22 09:24:41;;;;;;;0.20;0.20;;;3.40;99.90;;;;;;5009289;28;20048;-67
2023/01/22 09:27:07;;;;;;;0.10;0.10;;;3.40;99.90;;;;;;5024365;28;20041;-67
2023/01/22 09:29:33;;;;;;;1.00;1.00;;;3.40;99.90;;;;;;5021503;28;20060;-68
2023/01/22 09:31:59;;;;;;;0.40;0.40;;;3.40;99.90;;;;;;5025669;28;20037;-68
2023/01/22 09:34:25;;;;;;;0.10;0.10;;;3.40;99.90;;;;;;5022046;28;20078;-67
2023/01/22 09:36:50;;;;;;;0.20;0.20;;;3.40;99.90;;;;;;5004223;28;20091;-67
2023/01/22 09:39:16;;;;;;;0.10;0.10;;;3.50;99.90;;;;;;5011451;28;20049;-67
2023/01/22 09:41:48;;;;;;;0.17;0.17;;;3.40;99.90;;;;;;5021847;28;20057;-67
2023/01/22 09:44:32;;;;;;;0.73;0.73;;;3.50;99.90;;;;;;5024949;28;20045;-67
2023/01/22 09:47:05;;;;;;;0.15;0.15;;;3.40;99.90;;;;;;5007755;28;20559;-67
2023/01/22 09:49:51;;;;;;;0.30;0.30;;;3.50;99.90;;;;;;5023069;28;20096;-67
2023/01/22 09:52:17;;;;;;;0.10;0.10;;;3.50;99.90;;;;;;5026480;28;20058;-67
2023/01/22 09:54:42;;;;;;;0.10;0.10;;;3.60;99.90;;;;;;5024404;28;20041;-67
2023/01/22 09:57:14;;;;;;;1.73;1.20;;;3.60;99.90;;;;;;5026627;28;20081;-67
2023/01/22 09:59:49;;;;;;;0.10;0.10;;;3.60;99.90;;;;;;5002622;28;20041;-67
2023/01/22 10:02:25;;;;;;;1.30;1.20;;;3.60;99.90;;;;;;5023332;28;20041;-65
2023/01/22 10:05:00;;;;;;;0.35;0.35;;;3.60;99.90;;;;;;5027142;28;20065;-67
2023/01/22 10:07:34;;;;;;;0.10;0.10;;;3.70;99.90;;;;;;5021824;28;20033;-67
2023/01/22 10:10:24;;;;;;;0.20;0.20;;;3.70;99.90;;;;;;5026380;28;20045;-67
2023/01/22 10:13:08;;;;;;;0.10;0.10;;;3.70;99.90;;;;;;5025863;28;20037;-68
2023/01/22 10:15:33;;;;;;;0.20;0.20;;;3.70;99.90;;;;;;5021968;28;20125;-68
2023/01/22 10:18:00;;;;;;;0.10;0.10;;;3.70;99.90;;;;;;5026212;28;20187;-69
2023/01/22 10:20:27;;;;;;;0.20;0.20;;;3.70;99.90;;;;;;5009996;28;20079;-68
2023/01/22 10:23:00;;;;;;;0.10;0.10;;;3.70;99.90;;;;;;5023145;28;20041;-68
2023/01/22 10:25:27;;;;;;;0.10;0.10;;;3.70;99.90;;;;;;5026293;28;20102;-67
2023/01/22 10:27:59;;;;;;;1.02;0.95;;;3.70;99.90;;;;;;5023241;28;20076;-69
2023/01/22 10:30:25;;;;;;;1.02;0.95;;;3.70;99.90;;;;;;4998926;28;20084;-69
2023/01/22 10:33:03;;;;;;;1.00;0.75;;;3.70;99.90;;;;;;5025664;28;20133;-68
2023/01/22 10:35:32;;;;;;;0.57;0.57;;;3.70;99.90;;;;;;5023718;28;20217;-69
2023/01/22 10:37:58;;;;;;;0.55;0.55;;;3.70;99.90;;;;;;5015805;28;20053;-68
2023/01/22 10:40:31;;;;;;;0.10;0.10;;;3.80;99.90;;;;;;5021977;28;20579;-68
2023/01/22 10:43:15;;;;;;;0.43;0.43;;;3.80;99.90;;;;;;5020969;28;21393;-68
2023/01/22 10:45:51;;;;;;;;;;;3.70;99.90;;;;;;5019327;28;20046;-68
2023/01/22 10:48:17;;;;;;;1.95;0.75;;;3.80;99.90;;;;;;5028486;28;19924;-67
2023/01/22 10:50:44;;;;;;;0.25;0.25;;;3.80;99.90;;;;;;5005409;28;20052;-68
2023/01/22 10:53:29;;;;;;;0.40;0.40;;;3.90;99.90;;;;;;5003463;28;20077;-68
2023/01/22 10:55:58;;;;;;;0.10;0.10;;;3.80;99.90;;;;;;5022727;28;20037;-68
2023/01/22 10:58:26;;;;;;;0.10;0.10;;;3.90;99.90;;;;;;5014637;28;20029;-68
2023/01/22 11:01:21;;;;;;;0.10;0.10;;;3.90;99.90;;;;;;5025516;28;20045;-68
2023/01/22 11:03:47;;;;;;;0.25;0.25;;;3.90;99.90;;;;;;5006101;28;20061;-68
2023/01/22 11:06:21;;;;;;;2.83;2.28;;;3.90;99.90;;;;;;5018582;28;20037;-68
2023/01/22 11:09:29;;;;;;;0.47;0.47;;;4.00;99.90;;;;;;5001473;28;20569;-68
2023/01/22 11:12:14;;;;;;;0.10;0.10;;;3.90;99.90;;;;;;5002906;28;20058;-68
2023/01/22 11:14:41;;;;;;;0.10;0.10;;;4.00;99.90;;;;;;5019655;28;20038;-68
2023/01/22 11:17:28;;;;;;;0.10;0.10;;;4.00;99.90;;;;;;5020402;28;20099;-68
2023/01/22 11:20:01;;;;;;;0.10;0.10;;;4.00;99.90;;;;;;5023498;28;20041;-68
2023/01/22 11:22:36;;;;;;;0.10;0.10;;;4.10;99.90;;;;;;5023720;28;20077;-68
2023/01/22 11:25:02;;;;;;;0.15;0.15;;;4.00;99.90;;;;;;5007011;28;20724;-68
2023/01/22 11:27:46;;;;;;;0.30;0.30;;;4.10;99.90;;;;;;5023460;28;20045;-68
2023/01/22 11:30:35;;;;;;;0.40;0.40;;;4.10;99.90;;;;;;5025328;28;20072;-68
2023/01/22 11:33:08;;;;;;;0.20;0.20;;;4.00;99.90;;;;;;5027916;28;20034;-68
2023/01/22 11:36:03;;;;;;;0.10;0.10;;;4.00;99.90;;;;;;5025340;28;20455;-67
2023/01/22 11:38:51;;;;;;;0.38;0.38;;;4.00;99.90;;;;;;5022830;28;20046;-68
2023/01/22 11:41:44;;;;;;;0.15;0.15;;;4.00;99.90;;;;;;5029665;28;20088;-68
2023/01/22 11:44:21;;;;;;;0.52;0.52;;;4.10;99.90;;;;;;5030424;28;20188;-67
2023/01/22 11:47:07;;;;;;;0.10;0.10;;;4.10;99.90;;;;;;5028189;28;20143;-67
2023/01/22 11:49:41;;;;;;;0.20;0.20;;;4.10;99.90;;;;;;5010334;28;20485;-68
2023/01/22 11:52:36;;;;;;;0.22;0.22;;;4.10;99.90;;;;;;5029016;28;20045;-67
2023/01/22 11:55:20;;;;;;;0.90;0.90;;;4.10;99.90;;;;;;5023750;28;20604;-67
2023/01/22 11:58:14;;;;;;;0.10;0.10;;;4.00;99.90;;;;;;5019567;28;20049;-67
2023/01/22 12:00:44;;;;;;;0.32;0.32;;;4.10;99.90;;;;;;5028248;28;20504;-67
2023/01/22 12:03:10;;;;;;;0.25;0.25;;;4.10;99.90;;;;;;5010607;28;20084;-67
2023/01/22 12:06:11;;;;;;;0.25;0.25;;;4.10;99.90;;;;;;5030135;28;20084;-67
2023/01/22 12:09:19;;;;;;;0.10;0.10;;;4.10;99.90;;;;;;5024276;28;20053;-67
2023/01/22 12:11:51;;;;;;;0.30;0.30;;;4.20;99.90;;;;;;5027983;28;20055;-67
2023/01/22 12:14:24;;;;;;;0.10;0.10;;;4.20;99.90;;;;;;5029680;28;20046;-67
2023/01/22 12:17:27;;;;;;;0.30;0.30;;;4.20;99.90;;;;;;5027890;28;20409;-67
2023/01/22 12:20:18;;;;;;;0.10;0.10;;;4.20;99.90;;;;;;5030373;28;20049;-67
2023/01/22 12:22:51;;;;;;;0.40;0.40;;;4.20;99.90;;;;;;5018915;28;20041;-68
2023/01/22 12:25:28;;;;;;;0.20;0.20;;;4.30;99.90;;;;;;5011578;28;20224;-67
2023/01/22 12:28:01;;;;;;;0.10;0.10;;;4.30;99.90;;;;;;5012005;28;20052;-68
2023/01/22 12:30:58;;;;;;;0.20;0.20;;;4.30;99.90;;;;;;5004482;28;20053;-68
2023/01/22 12:33:37;;;;;;;0.55;0.55;;;4.40;99.90;;;;;;5007511;28;20045;-68
2023/01/22 12:36:04;;;;;;;0.20;0.20;;;4.30;99.90;;;;;;5005312;28;20051;-68
2023/01/22 12:38:41;;;;;;;0.10;0.10;;;4.40;99.90;;;;;;5005938;28;20824;-68
2023/01/22 12:41:21;;;;;;;0.30;0.30;;;4.50;99.90;;;;;;5006415;28;20053;-68
2023/01/22 12:44:09;;;;;;;0.65;0.63;;;4.50;99.90;;;;;;5018793;28;20053;-68
2023/01/22 12:46:37;;;;;;;1.40;1.33;;;4.50;99.90;;;;;;5028022;28;20046;-68
2023/01/22 12:49:09;;;;;;;0.10;0.10;;;4.60;99.90;;;;;;5011566;28;20049;-68
2023/01/22 12:51:46;;;;;;;0.60;0.60;;;4.60;99.90;;;;;;5017542;28;20154;-68
2023/01/22 12:54:35;;;;;;;0.10;0.10;;;4.60;99.90;;;;;;5027845;28;20033;-68
2023/01/22 12:57:21;;;;;;;0.05;0.05;;;4.60;99.90;;;;;;5025082;28;20041;-68
2023/01/22 12:59:50;;;;;;;0.20;0.20;;;4.60;99.90;;;;;;5019884;28;20065;-67
2023/01/22 13:02:29;;;;;;;0.55;0.55;;;4.50;99.90;;;;;;5011487;28;20393;-68
2023/01/22 13:04:55;;;;;;;0.10;0.10;;;4.50;99.90;;;;;;5008836;28;20481;-68
2023/01/22 13:07:30;;;;;;;0.20;0.20;;;4.60;99.90;;;;;;5009784;28;20037;-67
2023/01/22 13:10:05;;;;;;;0.20;0.20;;;4.60;99.90;;;;;;5006198;28;20053;-67
2023/01/22 13:12:44;;;;;;;0.20;0.20;;;4.70;99.90;;;;;;5024740;28;20048;-68
2023/01/22 13:15:16;;;;;;;0.22;0.22;;;4.60;99.90;;;;;;5027260;28;20046;-68
2023/01/22 13:17:42;;;;;;;0.13;0.13;;;4.60;99.90;;;;;;5028494;28;20712;-68
2023/01/22 13:20:16;;;;;;;0.10;0.10;;;4.70;99.90;;;;;;5021354;28;20405;-68